Time;durP1;ratioP1;P1;durP2;ratioP2;P2;SDS_P1;SDS_P2;PMS_P1;PMS_P2;Temp;Humidity;BMP_temperature;BMP_pressure;BME280_temperature;BME280_humidity;BME280_pressure;Samples;Min_cycle;Max_cycle;Signal;HPM_P1;HPM_P2
2023/04/08 00:01:00;;;;;;;8.80;6.00;;;;;;;20.99;38.74;99914.06;104395;1267;60877;-68
2023/04/08 00:03:29;;;;;;;7.50;6.50;;;;;;;20.93;38.58;99912.75;104365;1256;74659;-68
2023/04/08 00:05:59;;;;;;;6.40;5.80;;;;;;;20.79;38.85;99910.96;104514;1264;69650;-68
2023/04/08 00:08:29;;;;;;;6.10;5.50;;;;;;;20.71;39.25;99914.15;104387;1257;72910;-69
2023/04/08 00:10:58;;;;;;;7.60;6.00;;;;;;;20.72;39.10;99912.14;104476;1257;62420;-69
2023/04/08 00:13:30;;;;;;;7.10;6.10;;;;;;;20.71;39.20;99915.58;104311;1270;60639;-68
2023/04/08 00:15:58;;;;;;;9.60;5.50;;;;;;;20.72;39.35;99919.73;104397;1267;74438;-69
2023/04/08 00:18:28;;;;;;;8.80;6.10;;;;;;;20.73;39.23;99921.62;104390;1256;69403;-69
2023/04/08 00:20:56;;;;;;;6.00;5.30;;;;;;;20.80;39.35;99919.64;104230;1263;72213;-67
2023/04/08 00:23:25;;;;;;;6.60;5.90;;;;;;;20.83;39.33;99919.08;104298;1255;61392;-67
2023/04/08 00:25:53;;;;;;;5.90;5.10;;;;;;;20.85;39.57;99920.67;104345;1267;60854;-67
2023/04/08 00:28:28;;;;;;;5.40;4.90;;;;;;;20.92;39.46;99923.70;104450;1253;73483;-67
2023/04/08 00:30:57;;;;;;;6.50;5.70;;;;;;;20.89;39.51;99926.42;104465;1267;69154;-67
2023/04/08 00:33:26;;;;;;;5.50;5.00;;;;;;;20.87;39.44;99925.53;104328;1260;73087;-67
2023/04/08 00:35:54;;;;;;;6.10;5.30;;;;;;;20.85;39.50;99922.84;104403;1263;63156;-68
2023/04/08 00:38:23;;;;;;;6.20;5.60;;;;;;;20.83;39.56;99926.34;104391;1254;61519;-67
2023/04/08 00:40:52;;;;;;;5.70;5.20;;;;;;;20.83;39.56;99924.05;104355;1257;73893;-66
2023/04/08 00:43:21;;;;;;;6.40;5.40;;;;;;;20.77;39.64;99920.77;104362;1253;69667;-68
2023/04/08 00:45:50;;;;;;;8.30;5.30;;;;;;;20.72;39.58;99920.65;104342;1261;73894;-67
2023/04/08 00:48:19;;;;;;;5.80;5.10;;;;;;;20.67;39.83;99918.77;104549;1252;62649;-68
2023/04/08 00:50:47;;;;;;;5.40;4.60;;;;;;;20.71;39.85;99919.29;104456;1256;60542;-67
2023/04/08 00:53:35;;;;;;;5.90;4.70;;;;;;;20.75;39.91;99920.45;104473;1267;76336;-68
2023/04/08 00:56:04;;;;;;;5.40;4.90;;;;;;;20.72;39.74;99915.81;104420;1251;69070;-67
2023/04/08 00:58:33;;;;;;;5.70;5.10;;;;;;;20.66;39.78;99916.36;104379;1261;71745;-67
2023/04/08 01:01:06;;;;;;;5.40;4.90;;;;;;;20.61;40.00;99910.86;104397;1257;60992;-67
2023/04/08 01:04:00;;;;;;;7.50;5.70;;;;;;;20.60;40.06;99907.34;104484;1258;60588;-67
2023/04/08 01:07:16;;;;;;;6.30;5.30;;;;;;;20.65;40.45;99913.38;104496;1253;73049;-67
2023/04/08 01:09:50;;;;;;;6.40;5.10;;;;;;;20.62;40.04;99916.18;104420;1255;71331;-60
2023/04/08 01:12:27;;;;;;;5.40;4.90;;;;;;;20.53;40.40;99917.84;104447;1253;72021;-64
2023/04/08 01:15:00;;;;;;;5.80;4.80;;;;;;;20.53;40.43;99918.42;104520;1254;62506;-64
2023/04/08 01:17:29;;;;;;;5.90;5.40;;;;;;;20.56;40.45;99922.23;104302;1260;60562;-64
2023/04/08 01:20:00;;;;;;;5.60;5.10;;;;;;;20.58;40.33;99921.24;104244;1253;73869;-63
2023/04/08 01:22:53;;;;;;;5.80;4.80;;;;;;;20.63;40.63;99923.48;104379;1263;69114;-64
2023/04/08 01:25:25;;;;;;;5.20;4.70;;;;;;;20.68;40.44;99925.11;104351;1251;72017;-63
2023/04/08 01:27:56;;;;;;;5.20;4.80;;;;;;;20.66;40.40;99927.75;104319;1256;61447;-62
2023/04/08 01:30:26;;;;;;;4.90;4.50;;;;;;;20.62;40.43;99923.20;104399;1252;60450;-62
2023/04/08 01:35:50;;;;;;;5.70;5.20;;;;;;;19.39;44.50;99927.30;101169;1295;616158;-61
2023/04/08 01:38:21;;;;;;;5.40;4.90;;;;;;;20.75;40.93;99921.84;103803;1269;62898;-59
2023/04/08 01:40:48;;;;;;;5.70;5.10;;;;;;;20.74;40.87;99920.86;103947;1273;59273;-59
2023/04/08 01:43:16;;;;;;;6.10;5.50;;;;;;;20.70;40.93;99922.61;103935;1283;71044;-59
2023/04/08 01:45:43;;;;;;;6.50;5.80;;;;;;;20.66;41.12;99926.83;103876;1268;68654;-59
2023/04/08 01:48:12;;;;;;;5.90;5.30;;;;;;;20.64;41.31;99925.95;103683;1266;270958;-59
2023/04/08 01:50:43;;;;;;;6.40;5.50;;;;;;;20.67;41.54;99922.31;103998;1261;62226;-59
2023/04/08 01:53:12;;;;;;;5.60;5.10;;;;;;;20.67;41.83;99923.23;104527;1263;60252;-61
2023/04/08 01:55:41;;;;;;;6.50;5.80;;;;;;;20.64;42.49;99922.00;104383;1256;71528;-59
2023/04/08 01:58:08;;;;;;;6.50;5.90;;;;;;;20.63;42.67;99926.40;104341;1257;68867;-61
2023/04/08 02:00:36;;;;;;;6.40;5.70;;;;;;;20.53;43.00;99923.02;104269;1274;71707;-59
2023/04/08 02:03:04;;;;;;;;;;;;;;;20.41;43.30;99921.88;104352;1272;61328;-59
2023/04/08 02:05:33;;;;;;;6.00;5.50;;;;;;;20.34;44.36;99923.33;104625;1253;59711;-59
2023/04/08 02:08:00;;;;;;;8.40;6.30;;;;;;;20.15;43.76;99921.77;104580;1265;72505;-59
2023/04/08 02:10:32;;;;;;;7.20;6.20;;;;;;;20.10;44.28;99920.57;104798;1256;70104;-59
2023/04/08 02:13:00;;;;;;;7.00;6.40;;;;;;;20.02;44.37;99917.43;104479;1254;72144;-59
2023/04/08 02:15:33;;;;;;;6.80;6.20;;;;;;;19.98;44.89;99911.38;104584;1257;60878;-60
2023/04/08 02:18:15;;;;;;;7.10;6.40;;;;;;;19.99;45.36;99912.73;104422;1255;59729;-59
2023/04/08 02:20:51;;;;;;;6.80;6.20;;;;;;;20.01;45.40;99913.80;104342;1268;72461;-60
2023/04/08 02:23:32;;;;;;;6.90;6.20;;;;;;;20.09;45.38;99912.59;104425;1265;69743;-59
2023/04/08 02:25:59;;;;;;;6.60;5.70;;;;;;;20.08;44.92;99909.64;104528;1255;71827;-59
2023/04/08 02:28:26;;;;;;;8.40;7.20;;;;;;;20.12;44.97;99908.29;104343;1265;61656;-59
2023/04/08 02:30:55;;;;;;;7.30;6.50;;;;;;;20.17;44.86;99911.28;104316;1273;60365;-62
2023/04/08 02:33:23;;;;;;;7.60;6.90;;;;;;;20.18;44.52;99903.17;104516;1257;72527;-64
2023/04/08 02:35:54;;;;;;;7.30;6.60;;;;;;;20.15;44.80;99906.30;104432;1274;71126;-58
2023/04/08 02:38:28;;;;;;;8.20;7.40;;;;;;;20.12;45.18;99904.20;104454;1253;73011;-59
2023/04/08 02:40:56;;;;;;;7.60;6.90;;;;;;;20.16;45.37;99909.75;104572;1253;61881;-58
2023/04/08 02:43:30;;;;;;;10.30;6.90;;;;;;;20.18;45.00;99910.67;104422;1253;59736;-58
2023/04/08 02:46:02;;;;;;;11.00;8.10;;;;;;;20.23;45.40;99908.36;104492;1256;73378;-58
2023/04/08 02:48:30;;;;;;;9.40;7.50;;;;;;;20.20;45.02;99909.30;104505;1254;68901;-58
2023/04/08 02:50:57;;;;;;;8.70;7.80;;;;;;;20.17;45.03;99914.98;104334;1263;73085;-59
2023/04/08 02:53:25;;;;;;;7.90;6.90;;;;;;;20.14;45.50;99912.08;104347;1257;62184;-58
2023/04/08 02:55:52;;;;;;;8.20;7.40;;;;;;;20.23;45.52;99909.06;104554;1256;60987;-60
2023/04/08 02:58:19;;;;;;;8.90;6.90;;;;;;;20.20;45.54;99910.69;104429;1255;72075;-58
2023/04/08 03:00:47;;;;;;;7.90;7.10;;;;;;;20.17;45.62;99913.60;105030;1256;68612;-58
2023/04/08 03:03:16;;;;;;;8.20;6.90;;;;;;;20.18;45.40;99922.95;104238;1255;73151;-59
2023/04/08 03:05:42;;;;;;;7.90;7.10;;;;;;;20.20;45.55;99923.31;104759;1256;61465;-58
2023/04/08 03:08:09;;;;;;;9.60;7.50;;;;;;;20.24;45.73;99924.63;104522;1268;59775;-59
2023/04/08 03:10:37;;;;;;;7.90;6.80;;;;;;;20.25;45.56;99922.59;104346;1262;74032;-58
2023/04/08 03:13:04;;;;;;;8.00;7.20;;;;;;;20.24;45.52;99917.88;104341;1255;69841;-58
2023/04/08 03:15:31;;;;;;;9.10;7.00;;;;;;;20.19;45.78;99923.20;104604;1255;71943;-58
2023/04/08 03:17:58;;;;;;;8.60;7.70;;;;;;;20.23;45.27;99923.65;104474;1251;62114;-61
2023/04/08 03:20:25;;;;;;;8.80;7.90;;;;;;;20.17;45.78;99930.35;104505;1256;59774;-61
2023/04/08 03:22:54;;;;;;;8.50;7.30;;;;;;;20.05;45.63;99928.59;104620;1257;72497;-61
2023/04/08 03:25:21;;;;;;;8.90;8.00;;;;;;;20.02;46.21;99923.88;104455;1273;68709;-62
2023/04/08 03:27:47;;;;;;;8.50;7.00;;;;;;;20.00;46.35;99923.61;104479;1260;72156;-62
2023/04/08 03:30:14;;;;;;;8.50;7.60;;;;;;;19.98;46.66;99923.59;104385;1256;61949;-63
2023/04/08 03:32:42;;;;;;;8.00;7.30;;;;;;;20.00;46.89;99921.52;104611;1266;60472;-62
2023/04/08 03:35:10;;;;;;;7.70;7.00;;;;;;;19.98;46.18;99923.04;104596;1253;73106;-60
2023/04/08 03:37:37;;;;;;;8.20;7.50;;;;;;;19.96;46.94;99922.87;104464;1254;68930;-60
2023/04/08 03:40:05;;;;;;;7.60;6.90;;;;;;;19.99;47.08;99920.20;104509;1256;71731;-58
2023/04/08 03:42:32;;;;;;;;;;;;;;;20.04;47.21;99919.92;104466;1256;61628;-58
2023/04/08 03:44:59;;;;;;;8.10;7.10;;;;;;;20.03;48.69;99924.11;104403;1251;59773;-59
2023/04/08 03:47:26;;;;;;;7.80;7.00;;;;;;;19.94;47.89;99922.52;104485;1257;72832;-59
2023/04/08 03:49:54;;;;;;;8.20;6.90;;;;;;;19.97;47.75;99927.96;104416;1257;69945;-59
2023/04/08 03:52:21;;;;;;;7.70;6.90;;;;;;;20.01;48.06;99931.18;104317;1256;73697;-59
2023/04/08 03:54:48;;;;;;;7.90;7.10;;;;;;;20.05;47.95;99932.83;104393;1273;60975;-59
2023/04/08 03:57:15;;;;;;;8.80;8.00;;;;;;;20.03;48.09;99934.27;104490;1256;59837;-61
2023/04/08 03:59:42;;;;;;;8.70;7.60;;;;;;;20.02;48.33;99937.02;104409;1264;72436;-59
2023/04/08 04:02:09;;;;;;;8.50;7.70;;;;;;;19.98;48.13;99935.32;104352;1256;69044;-60
2023/04/08 04:04:37;;;;;;;8.80;8.00;;;;;;;20.01;48.50;99938.30;104250;1261;73038;-59
2023/04/08 04:07:04;;;;;;;7.80;7.00;;;;;;;20.14;49.36;99944.05;104696;1252;61354;-59
2023/04/08 04:09:31;;;;;;;7.70;7.00;;;;;;;20.06;48.22;99941.19;104378;1267;59471;-58
2023/04/08 04:11:58;;;;;;;8.40;7.30;;;;;;;20.09;48.52;99940.74;104367;1265;73050;-59
2023/04/08 04:14:26;;;;;;;7.80;7.10;;;;;;;20.13;48.15;99938.30;104554;1255;69992;-59
2023/04/08 04:16:53;;;;;;;7.70;7.00;;;;;;;20.12;48.39;99942.14;104385;1256;72303;-60
2023/04/08 04:19:20;;;;;;;9.40;7.30;;;;;;;20.07;48.64;99944.98;104355;1257;61944;-59
2023/04/08 04:21:50;;;;;;;7.70;6.70;;;;;;;20.07;48.68;99949.10;104461;1263;59759;-60
2023/04/08 04:24:17;;;;;;;8.80;7.80;;;;;;;20.08;48.69;99950.26;104649;1258;72595;-60
2023/04/08 04:26:44;;;;;;;9.50;8.50;;;;;;;20.12;48.49;99949.42;104513;1264;69254;-59
2023/04/08 04:29:11;;;;;;;8.10;7.20;;;;;;;20.08;49.10;99950.10;104440;1266;72430;-60
2023/04/08 04:31:39;;;;;;;10.20;7.70;;;;;;;20.07;49.20;99950.31;104364;1269;61439;-60
2023/04/08 04:34:06;;;;;;;;;;;;;;;20.09;49.65;99950.88;104324;1251;59756;-60
2023/04/08 04:36:34;;;;;;;8.00;7.20;;;;;;;20.11;50.33;99951.09;104574;1258;73048;-60
2023/04/08 04:39:01;;;;;;;9.30;7.40;;;;;;;20.02;49.97;99953.41;104596;1254;69848;-60
2023/04/08 04:41:29;;;;;;;8.40;7.70;;;;;;;19.95;50.69;99954.80;104491;1254;71877;-59
2023/04/08 04:43:56;;;;;;;8.80;7.90;;;;;;;19.94;49.92;99954.55;104579;1256;61761;-60
2023/04/08 04:46:23;;;;;;;9.50;7.90;;;;;;;19.96;50.35;99954.23;104342;1251;60071;-60
2023/04/08 04:48:50;;;;;;;8.10;7.40;;;;;;;19.97;50.65;99956.45;104415;1264;72995;-61
2023/04/08 04:51:17;;;;;;;9.30;8.40;;;;;;;19.99;51.17;99959.66;104375;1255;69819;-61
2023/04/08 04:53:45;;;;;;;8.60;7.80;;;;;;;20.09;50.84;99962.45;104307;1256;72209;-60
2023/04/08 04:56:12;;;;;;;9.00;8.20;;;;;;;20.17;50.97;99963.77;104500;1254;61305;-60
2023/04/08 04:58:41;;;;;;;8.80;7.90;;;;;;;20.18;51.38;99967.63;104533;1256;60381;-60
2023/04/08 05:01:08;;;;;;;10.50;8.60;;;;;;;20.18;51.63;99966.91;104408;1257;72155;-60
2023/04/08 05:03:35;;;;;;;8.60;7.60;;;;;;;20.15;52.00;99968.88;104268;1256;69911;-60
2023/04/08 05:06:04;;;;;;;8.70;7.90;;;;;;;20.20;51.55;99968.70;104567;1267;73019;-63
2023/04/08 05:08:31;;;;;;;9.50;8.40;;;;;;;20.30;51.21;99968.80;104372;1252;61443;-60
2023/04/08 05:11:01;;;;;;;9.00;8.10;;;;;;;20.32;51.91;99966.36;104383;1261;59759;-59
2023/04/08 05:13:37;;;;;;;9.10;8.30;;;;;;;20.24;52.67;99970.17;104575;1260;72171;-59
2023/04/08 05:16:05;;;;;;;11.50;9.00;;;;;;;20.23;52.87;99977.23;104362;1254;69981;-59
2023/04/08 05:18:33;;;;;;;11.00;8.80;;;;;;;20.19;53.56;99974.84;104547;1272;72584;-59
2023/04/08 05:21:04;;;;;;;9.50;8.50;;;;;;;20.26;53.04;99973.58;104513;1257;61365;-59
2023/04/08 05:23:33;;;;;;;9.80;8.60;;;;;;;20.40;53.06;99978.59;104405;1266;59661;-59
2023/04/08 05:26:01;;;;;;;10.60;9.50;;;;;;;20.51;53.53;99980.54;104517;1272;72438;-59
2023/04/08 05:28:28;;;;;;;11.30;8.60;;;;;;;20.54;53.69;99978.70;104372;1258;68549;-60
2023/04/08 05:30:55;;;;;;;11.80;9.30;;;;;;;20.63;52.76;99979.61;104334;1254;72407;-61
2023/04/08 05:33:22;;;;;;;11.50;9.00;;;;;;;20.68;52.68;99973.87;104251;1256;62040;-59
2023/04/08 05:35:51;;;;;;;12.10;10.00;;;;;;;20.77;53.31;99976.41;104765;1252;60110;-59
2023/04/08 05:38:21;;;;;;;11.30;10.10;;;;;;;20.80;54.04;99976.50;104829;1254;72452;-60
2023/04/08 05:40:49;;;;;;;10.50;9.40;;;;;;;20.85;53.84;99982.55;104490;1261;69174;-59
2023/04/08 05:43:16;;;;;;;;;;;;;;;20.96;53.53;99984.45;104613;1256;72805;-59
2023/04/08 05:45:43;;;;;;;12.80;10.30;;;;;;;21.12;55.40;99984.39;104827;1255;62650;-60
2023/04/08 05:48:11;;;;;;;11.20;9.40;;;;;;;21.13;53.41;99982.05;104498;1256;60883;-59
2023/04/08 05:50:38;;;;;;;12.10;10.20;;;;;;;21.06;54.01;99981.48;104658;1256;73333;-59
2023/04/08 05:53:05;;;;;;;14.20;10.50;;;;;;;21.08;53.98;99983.48;104704;1256;69197;-58
2023/04/08 05:55:32;;;;;;;12.20;10.50;;;;;;;21.11;54.17;99985.06;104581;1254;72890;-62
2023/04/08 05:58:00;;;;;;;13.50;12.10;;;;;;;21.15;53.45;99987.36;104545;1256;60948;-60
2023/04/08 06:00:27;;;;;;;15.40;12.10;;;;;;;21.21;53.20;99987.09;104581;1257;60543;-59
2023/04/08 06:03:15;;;;;;;16.30;12.40;;;;;;;21.32;54.62;99993.45;104318;1259;76586;-58
2023/04/08 06:05:45;;;;;;;15.10;11.80;;;;;;;21.32;54.50;99989.05;104475;1254;69718;-60
2023/04/08 06:08:13;;;;;;;15.20;13.20;;;;;;;21.27;54.06;99988.77;104464;1257;72625;-58
2023/04/08 06:10:49;;;;;;;14.80;13.20;;;;;;;21.36;53.02;99992.49;104468;1254;63038;-59
2023/04/08 06:13:19;;;;;;;14.80;13.10;;;;;;;21.40;54.19;99994.09;104406;1254;60571;-58
2023/04/08 06:15:47;;;;;;;15.20;13.20;;;;;;;21.45;53.88;99994.36;104446;1257;73024;-58
2023/04/08 06:18:19;;;;;;;15.20;13.40;;;;;;;21.56;54.21;99990.60;104368;1251;69437;-59
2023/04/08 06:20:46;;;;;;;15.70;13.10;;;;;;;21.61;53.87;99992.02;104374;1253;74216;-59
2023/04/08 06:23:14;;;;;;;17.10;13.50;;;;;;;21.60;53.11;99993.73;104701;1257;62226;-60
2023/04/08 06:25:41;;;;;;;17.30;14.40;;;;;;;21.63;53.74;99995.56;104444;1254;61311;-60
2023/04/08 06:28:09;;;;;;;14.70;13.10;;;;;;;21.70;53.65;99990.77;104596;1254;72924;-59
2023/04/08 06:30:37;;;;;;;18.40;13.60;;;;;;;21.80;53.28;99997.77;104267;1255;70315;-58
2023/04/08 06:33:06;;;;;;;14.30;12.70;;;;;;;21.87;53.08;99998.39;104485;1255;71903;-59
2023/04/08 06:35:33;;;;;;;14.10;12.70;;;;;;;21.90;52.63;100003.55;104419;1258;61316;-61
2023/04/08 06:38:00;;;;;;;14.00;12.60;;;;;;;21.98;53.11;100004.60;105049;1254;60546;-58
2023/04/08 06:40:27;;;;;;;13.30;12.00;;;;;;;22.02;52.95;100005.20;104580;1255;73279;-58
2023/04/08 06:42:55;;;;;;;13.40;12.10;;;;;;;22.04;53.17;100001.23;104425;1256;69354;-59
2023/04/08 06:45:32;;;;;;;11.90;10.70;;;;;;;22.20;54.00;99998.46;104305;1257;72217;-59
2023/04/08 06:48:00;;;;;;;;;;;;;;;22.19;52.72;99994.61;104256;1262;61555;-58
2023/04/08 06:50:27;;;;;;;10.10;9.20;;;;;;;22.27;53.06;100000.75;104576;1270;60184;-59
2023/04/08 06:52:54;;;;;;;10.50;9.50;;;;;;;22.21;52.57;100002.30;104256;1260;73215;-59
2023/04/08 06:55:21;;;;;;;10.60;9.40;;;;;;;22.23;52.56;100007.64;104545;1258;70129;-60
2023/04/08 06:57:52;;;;;;;12.30;10.00;;;;;;;22.27;52.35;100006.83;104304;1258;72557;-60
2023/04/08 07:00:20;;;;;;;10.60;9.50;;;;;;;22.29;52.21;100005.23;104503;1260;61172;-61
2023/04/08 07:03:07;;;;;;;10.90;9.50;;;;;;;22.41;52.76;100008.98;104662;1256;63344;-59
2023/04/08 07:05:35;;;;;;;;;;;;;;;22.44;52.34;100007.51;104567;1267;73402;-58
2023/04/08 07:08:02;;;;;;;11.90;9.10;;;;;;;22.53;52.50;100012.56;104546;1267;69285;-59
2023/04/08 07:10:30;;;;;;;11.90;8.70;;;;;;;22.50;52.31;100009.16;104531;1258;72686;-58
2023/04/08 07:12:58;;;;;;;11.80;8.50;;;;;;;22.57;52.09;100014.27;104226;1267;61833;-59
2023/04/08 07:15:26;;;;;;;9.50;8.50;;;;;;;22.61;52.27;100012.63;104592;1254;60562;-58
2023/04/08 07:17:58;;;;;;;9.50;8.50;;;;;;;22.72;52.42;100015.77;104460;1258;73574;-58
2023/04/08 07:20:25;;;;;;;9.30;8.40;;;;;;;22.75;52.02;100016.94;104412;1256;69196;-60
2023/04/08 07:22:57;;;;;;;9.70;7.90;;;;;;;22.80;52.41;100022.21;104437;1273;73311;-58
2023/04/08 07:25:24;;;;;;;9.00;8.00;;;;;;;22.85;52.29;100023.41;104481;1264;61015;-59
2023/04/08 07:27:51;;;;;;;10.50;7.30;;;;;;;22.95;52.22;100024.49;104340;1267;59363;-58
2023/04/08 07:30:19;;;;;;;7.70;6.60;;;;;;;23.01;51.92;100027.54;104294;1251;73140;-58
2023/04/08 07:32:46;;;;;;;9.40;7.50;;;;;;;23.09;51.21;100024.85;104446;1260;70546;-59
2023/04/08 07:35:23;;;;;;;8.30;6.30;;;;;;;23.09;51.56;100023.24;104972;1253;72158;-59
2023/04/08 07:37:51;;;;;;;8.10;6.10;;;;;;;23.15;51.99;100026.30;104596;1255;61466;-59
2023/04/08 07:40:18;;;;;;;10.20;6.80;;;;;;;23.27;51.95;100027.95;104378;1256;60479;-59
2023/04/08 07:42:46;;;;;;;7.90;5.60;;;;;;;23.40;50.24;100034.09;104498;1257;74445;-59
2023/04/08 07:45:14;;;;;;;7.30;6.30;;;;;;;23.54;50.88;100032.85;104369;1263;70606;-59
2023/04/08 07:47:41;;;;;;;6.40;5.80;;;;;;;23.61;50.01;100029.29;104426;1253;72358;-59
2023/04/08 07:50:09;;;;;;;10.00;6.40;;;;;;;23.66;49.30;100029.97;104518;1257;62902;-59
2023/04/08 07:52:36;;;;;;;;;;;;;;;23.72;50.25;100027.07;104410;1254;60450;-60
2023/04/08 07:55:04;;;;;;;8.50;5.80;;;;;;;23.89;51.72;100026.10;104521;1255;73374;-61
2023/04/08 07:57:31;;;;;;;;;;;;;;;23.93;50.76;100023.95;104328;1260;71437;-62
2023/04/08 07:59:58;;;;;;;6.10;4.60;;;;;;;24.01;50.55;100026.73;104427;1267;72974;-61
2023/04/08 08:02:25;;;;;;;8.10;4.80;;;;;;;23.95;49.42;100026.77;104590;1254;62081;-61
2023/04/08 08:04:53;;;;;;;7.70;4.40;;;;;;;24.00;49.23;100026.31;104507;1257;60563;-62
2023/04/08 08:07:20;;;;;;;5.60;4.50;;;;;;;24.04;49.56;100021.11;104390;1263;74063;-62
2023/04/08 08:09:47;;;;;;;6.50;4.60;;;;;;;24.12;50.47;100022.52;104378;1253;68972;-63
2023/04/08 08:12:14;;;;;;;7.20;4.50;;;;;;;24.29;50.59;100022.34;104656;1254;72289;-61
2023/04/08 08:14:43;;;;;;;5.00;4.50;;;;;;;24.40;50.30;100019.17;104402;1257;61233;-62
2023/04/08 08:17:11;;;;;;;7.10;3.80;;;;;;;24.47;48.79;100017.73;104391;1250;60463;-61
2023/04/08 08:19:38;;;;;;;7.10;4.40;;;;;;;24.60;47.60;100018.71;104592;1254;73400;-61
2023/04/08 08:22:10;;;;;;;7.30;3.50;;;;;;;24.68;46.83;100017.92;104517;1254;68714;-60
2023/04/08 08:24:38;;;;;;;9.90;4.40;;;;;;;24.74;46.82;100015.24;104288;1257;73340;-60
2023/04/08 08:27:05;;;;;;;6.10;3.80;;;;;;;24.79;46.35;100018.52;104374;1261;60517;-60
2023/04/08 08:29:32;;;;;;;5.70;3.30;;;;;;;24.89;46.11;100012.58;104475;1257;60559;-60
2023/04/08 08:32:00;;;;;;;4.40;3.30;;;;;;;24.88;46.02;100016.23;104334;1268;73411;-61
2023/04/08 08:34:27;;;;;;;6.80;3.90;;;;;;;24.87;46.03;100016.48;104456;1268;68778;-60
2023/04/08 08:36:54;;;;;;;4.80;3.00;;;;;;;24.88;44.53;100009.70;104326;1256;72556;-61
2023/04/08 08:39:21;;;;;;;6.20;3.00;;;;;;;25.01;45.97;100013.29;104241;1257;60587;-60
2023/04/08 08:41:50;;;;;;;5.30;3.00;;;;;;;25.09;46.06;100014.34;104401;1264;60559;-60
2023/04/08 08:44:17;;;;;;;3.40;2.90;;;;;;;25.14;45.53;100014.22;104496;1254;72938;-61
2023/04/08 08:46:44;;;;;;;5.10;2.60;;;;;;;25.18;45.48;100012.55;104426;1256;69813;-64
2023/04/08 08:49:11;;;;;;;6.50;2.50;;;;;;;25.24;45.70;100013.50;104443;1254;72901;-62
2023/04/08 08:51:44;;;;;;;6.60;3.10;;;;;;;25.31;45.39;100010.80;104636;1254;61479;-61
2023/04/08 08:54:12;;;;;;;5.80;2.50;;;;;;;25.38;44.86;100014.00;104461;1261;60562;-62
2023/04/08 08:56:39;;;;;;;5.40;2.90;;;;;;;25.47;45.60;100017.09;104351;1257;73165;-61
2023/04/08 08:59:07;;;;;;;9.90;3.20;;;;;;;25.56;45.69;100014.45;104325;1254;69456;-60
2023/04/08 09:01:37;;;;;;;4.40;2.60;;;;;;;25.63;44.71;100014.45;105483;1254;71732;-60
2023/04/08 09:04:09;;;;;;;4.80;2.70;;;;;;;25.69;45.47;100013.27;104566;1261;60543;-60
2023/04/08 09:06:38;;;;;;;3.90;2.70;;;;;;;25.74;45.22;100016.34;104250;1260;61161;-59
2023/04/08 09:09:09;;;;;;;4.50;2.80;;;;;;;25.78;44.05;100012.91;104520;1254;75545;-59
2023/04/08 09:11:43;;;;;;;5.70;2.60;;;;;;;25.87;43.38;100011.84;104455;1260;70190;-60
2023/04/08 09:14:21;;;;;;;5.20;2.30;;;;;;;25.90;43.14;100009.91;104291;1252;72499;-60
2023/04/08 09:16:48;;;;;;;6.30;2.70;;;;;;;25.94;43.12;100006.59;104230;1269;60685;-60
2023/04/08 09:19:18;;;;;;;3.90;2.70;;;;;;;25.93;43.13;100009.82;104331;1257;60523;-60
2023/04/08 09:22:02;;;;;;;3.70;2.20;;;;;;;25.95;43.16;100009.77;104248;1255;74729;-61
2023/04/08 09:24:30;;;;;;;4.30;2.20;;;;;;;26.07;42.98;100010.17;104398;1259;69506;-61
2023/04/08 09:27:06;;;;;;;7.30;2.50;;;;;;;26.12;42.11;100010.61;104219;1269;72702;-62
2023/04/08 09:29:33;;;;;;;7.70;2.20;;;;;;;26.14;42.55;100008.94;104283;1268;60567;-61
2023/04/08 09:32:04;;;;;;;7.60;2.30;;;;;;;26.20;42.61;100011.97;104493;1265;60397;-61
2023/04/08 09:34:33;;;;;;;7.10;2.50;;;;;;;26.20;41.85;100011.72;104316;1265;74053;-62
2023/04/08 09:37:00;;;;;;;3.10;2.40;;;;;;;26.19;42.04;100013.83;104261;1260;68909;-62
2023/04/08 09:39:29;;;;;;;5.70;2.30;;;;;;;26.22;42.63;100014.27;104385;1258;71893;-63
2023/04/08 09:41:57;;;;;;;3.60;2.20;;;;;;;26.27;42.20;100017.48;104273;1260;62789;-62
2023/04/08 09:44:25;;;;;;;7.90;1.70;;;;;;;26.36;42.86;100017.84;104441;1263;60454;-62
2023/04/08 09:46:59;;;;;;;6.70;2.30;;;;;;;26.42;42.61;100021.14;104140;1259;74831;-61
2023/04/08 09:49:27;;;;;;;6.40;2.00;;;;;;;26.48;42.44;100016.61;104190;1257;68938;-62
2023/04/08 09:52:13;;;;;;;4.60;2.00;;;;;;;26.53;42.25;100021.29;104485;1254;72284;-62
2023/04/08 09:54:51;;;;;;;4.60;1.90;;;;;;;26.58;41.20;100020.77;104448;1269;60570;-62
2023/04/08 09:57:40;;;;;;;6.10;2.40;;;;;;;26.64;40.58;100020.33;104356;1260;59502;-64
2023/04/08 10:00:14;;;;;;;6.00;2.30;;;;;;;26.74;40.62;100024.90;104300;1257;74764;-63
2023/04/08 10:02:58;;;;;;;8.20;2.10;;;;;;;26.79;41.97;100024.91;104526;1269;69367;-64
2023/04/08 10:05:26;;;;;;;8.00;2.30;;;;;;;26.83;40.84;100025.58;104326;1257;72747;-63
2023/04/08 10:07:55;;;;;;;6.60;2.10;;;;;;;26.89;40.52;100023.82;104398;1254;60707;-60
2023/04/08 10:10:22;;;;;;;3.80;1.90;;;;;;;26.94;40.92;100023.33;104331;1262;60601;-61
2023/04/08 10:12:51;;;;;;;7.40;2.10;;;;;;;26.95;40.42;100025.23;104264;1259;74123;-60
2023/04/08 10:15:29;;;;;;;4.10;2.00;;;;;;;27.00;40.43;100030.02;104471;1264;70234;-60
2023/04/08 10:18:05;;;;;;;5.20;1.90;;;;;;;27.02;39.88;100024.58;104447;1253;73041;-60
2023/04/08 10:20:33;;;;;;;7.70;2.40;;;;;;;27.02;39.76;100019.92;104373;1256;60912;-61
2023/04/08 10:23:02;;;;;;;7.50;2.30;;;;;;;27.08;40.31;100019.70;104499;1253;60764;-62
2023/04/08 10:25:36;;;;;;;3.50;2.10;;;;;;;27.08;40.10;100019.89;104373;1253;74894;-61
2023/04/08 10:28:09;;;;;;;3.10;2.10;;;;;;;27.04;38.81;100023.20;104489;1267;69511;-61
2023/04/08 10:30:37;;;;;;;3.40;1.90;;;;;;;27.02;39.66;100021.20;104264;1275;72686;-61
2023/04/08 10:33:33;;;;;;;6.50;1.80;;;;;;;27.05;38.96;100019.46;104454;1268;60937;-61
2023/04/08 10:36:14;;;;;;;3.70;1.90;;;;;;;27.14;38.46;100021.86;104516;1253;61461;-62
2023/04/08 10:38:41;;;;;;;3.90;2.00;;;;;;;27.20;39.09;100020.94;104417;1255;74217;-61
2023/04/08 10:41:09;;;;;;;3.80;1.60;;;;;;;27.19;38.79;100017.66;104380;1257;70451;-62
2023/04/08 10:43:37;;;;;;;4.20;2.10;;;;;;;27.25;39.00;100024.54;104399;1254;72832;-62
2023/04/08 10:46:09;;;;;;;4.10;1.70;;;;;;;27.25;39.20;100025.11;104442;1253;62516;-61
2023/04/08 10:48:36;;;;;;;4.50;1.90;;;;;;;27.17;38.87;100021.27;104290;1269;60752;-62
2023/04/08 10:51:05;;;;;;;4.50;2.00;;;;;;;27.08;38.04;100019.00;104359;1257;74871;-61
2023/04/08 10:53:36;;;;;;;8.20;2.10;;;;;;;27.02;37.43;100013.89;104443;1254;70728;-61
2023/04/08 10:56:16;;;;;;;5.70;2.00;;;;;;;26.98;38.65;100014.61;104452;1269;73395;-61
2023/04/08 10:58:48;;;;;;;4.60;2.00;;;;;;;26.99;38.59;100010.38;104333;1255;60575;-63
2023/04/08 11:01:18;;;;;;;6.30;2.10;;;;;;;27.03;38.62;100008.09;104300;1265;60581;-61
2023/04/08 11:03:46;;;;;;;9.50;1.90;;;;;;;27.12;38.51;100004.10;104388;1257;73523;-61
2023/04/08 11:06:14;;;;;;;5.40;2.00;;;;;;;27.12;38.71;100001.95;104319;1268;69133;-61
2023/04/08 11:08:43;;;;;;;5.10;1.90;;;;;;;27.16;38.26;99993.96;104354;1253;73043;-60
2023/04/08 11:11:10;;;;;;;2.40;1.60;;;;;;;27.24;38.30;99988.51;104266;1253;60689;-60
2023/04/08 11:13:44;;;;;;;5.20;1.80;;;;;;;27.28;37.86;99984.77;104440;1256;60686;-60
2023/04/08 11:16:21;;;;;;;3.20;1.60;;;;;;;27.38;37.49;99984.25;104261;1256;73806;-61
2023/04/08 11:18:54;;;;;;;3.60;1.90;;;;;;;27.33;37.76;99983.21;104521;1256;69586;-61
2023/04/08 11:21:45;;;;;;;4.90;2.30;;;;;;;27.23;37.74;99982.27;104765;1254;74165;-62
2023/04/08 11:24:15;;;;;;;6.00;2.00;;;;;;;27.17;37.61;99984.72;104848;1252;61837;-60
2023/04/08 11:26:46;;;;;;;7.50;1.80;;;;;;;27.25;37.62;99983.15;104244;1271;60481;-63
2023/04/08 11:29:14;;;;;;;3.30;2.00;;;;;;;27.18;37.14;99985.15;104227;1257;74889;-62
2023/04/08 11:31:42;;;;;;;3.40;1.80;;;;;;;27.06;37.40;99983.17;104549;1253;70526;-62
2023/04/08 11:34:11;;;;;;;3.50;1.70;;;;;;;26.95;37.18;99982.43;104388;1257;72818;-64
2023/04/08 11:36:41;;;;;;;2.20;1.60;;;;;;;26.92;36.95;99984.34;104331;1257;60661;-64